Breckenridge, Illinois
Current Conditions -  °F | °C
As of 12:52 AM on Sunday 21 Dec 2014 (Local Time) from KSPI Reporting Station
Overcast Overcast  
Wind Chill: 29°   Ceiling: 3600
Heat Index: 37°   Visibility: 10mi
Dew Point: 31°   Wind: 13mph
Humidity: 79%   Direction: 170°S
Pressure: 30.23"   Gusts: NA
Location:  39.7312°N, 89.5322°W
Report Text: KSPI 210652Z AUTO 17011KT 10SM OVC036 03/M01 A3023 RMK AO2 SLP240 T00281006
Loading
Personal Weather Stations






























Interactive Weather Map New forecast layout! Learn more

10-Day Weather Forecast

Advertisements
Track Severe Weather on mobile